sensor_id;sensor_type;location;lat;lon;timestamp;P1;durP1;ratioP1;P2;durP2;ratioP2
12480;SDS011;6305;48.398;11.762;2023-06-14T00:01:51;5.55;;;3.65;;
12480;SDS011;6305;48.398;11.762;2023-06-14T00:04:18;6.55;;;3.53;;
12480;SDS011;6305;48.398;11.762;2023-06-14T00:06:46;7.90;;;4.05;;
12480;SDS011;6305;48.398;11.762;2023-06-14T00:09:14;7.40;;;3.75;;
12480;SDS011;6305;48.398;11.762;2023-06-14T00:11:42;4.47;;;3.75;;
12480;SDS011;6305;48.398;11.762;2023-06-14T00:14:11;10.60;;;4.07;;
12480;SDS011;6305;48.398;11.762;2023-06-14T00:16:39;5.72;;;4.03;;
12480;SDS011;6305;48.398;11.762;2023-06-14T00:19:07;4.75;;;4.22;;
12480;SDS011;6305;48.398;11.762;2023-06-14T00:21:35;5.22;;;3.65;;
12480;SDS011;6305;48.398;11.762;2023-06-14T00:24:03;7.10;;;4.22;;
12480;SDS011;6305;48.398;11.762;2023-06-14T00:26:31;6.05;;;3.97;;
12480;SDS011;6305;48.398;11.762;2023-06-14T00:28:58;7.03;;;3.78;;
12480;SDS011;6305;48.398;11.762;2023-06-14T00:31:27;5.32;;;3.60;;
12480;SDS011;6305;48.398;11.762;2023-06-14T00:33:54;5.38;;;3.72;;
12480;SDS011;6305;48.398;11.762;2023-06-14T00:36:21;5.80;;;3.67;;
12480;SDS011;6305;48.398;11.762;2023-06-14T00:38:48;5.70;;;3.72;;
12480;SDS011;6305;48.398;11.762;2023-06-14T00:41:15;5.70;;;3.70;;
12480;SDS011;6305;48.398;11.762;2023-06-14T00:43:42;5.47;;;3.90;;
12480;SDS011;6305;48.398;11.762;2023-06-14T00:46:10;7.07;;;4.43;;
12480;SDS011;6305;48.398;11.762;2023-06-14T00:48:38;5.47;;;4.05;;
12480;SDS011;6305;48.398;11.762;2023-06-14T00:51:06;7.07;;;3.90;;
12480;SDS011;6305;48.398;11.762;2023-06-14T00:53:34;5.70;;;3.97;;
12480;SDS011;6305;48.398;11.762;2023-06-14T00:56:01;6.10;;;4.22;;
12480;SDS011;6305;48.398;11.762;2023-06-14T00:58:29;6.03;;;4.20;;
12480;SDS011;6305;48.398;11.762;2023-06-14T01:00:58;8.95;;;3.92;;
12480;SDS011;6305;48.398;11.762;2023-06-14T01:03:45;7.07;;;4.50;;
12480;SDS011;6305;48.398;11.762;2023-06-14T01:06:33;7.78;;;4.57;;
12480;SDS011;6305;48.398;11.762;2023-06-14T01:09:08;4.97;;;4.30;;
12480;SDS011;6305;48.398;11.762;2023-06-14T01:11:44;6.55;;;3.92;;
12480;SDS011;6305;48.398;11.762;2023-06-14T01:14:16;7.53;;;4.43;;
12480;SDS011;6305;48.398;11.762;2023-06-14T01:16:44;4.63;;;3.83;;
12480;SDS011;6305;48.398;11.762;2023-06-14T01:19:14;7.10;;;4.55;;
12480;SDS011;6305;48.398;11.762;2023-06-14T01:21:43;4.93;;;3.78;;
12480;SDS011;6305;48.398;11.762;2023-06-14T01:24:11;6.15;;;4.32;;
12480;SDS011;6305;48.398;11.762;2023-06-14T01:26:38;5.60;;;3.80;;
12480;SDS011;6305;48.398;11.762;2023-06-14T01:29:11;5.85;;;4.45;;
12480;SDS011;6305;48.398;11.762;2023-06-14T01:31:41;5.78;;;4.10;;
12480;SDS011;6305;48.398;11.762;2023-06-14T01:34:09;7.03;;;4.35;;
12480;SDS011;6305;48.398;11.762;2023-06-14T01:36:36;5.45;;;4.90;;
12480;SDS011;6305;48.398;11.762;2023-06-14T01:39:06;7.35;;;4.22;;
12480;SDS011;6305;48.398;11.762;2023-06-14T01:41:36;8.75;;;4.38;;
12480;SDS011;6305;48.398;11.762;2023-06-14T01:44:03;5.38;;;3.92;;
12480;SDS011;6305;48.398;11.762;2023-06-14T01:46:32;7.57;;;4.05;;
12480;SDS011;6305;48.398;11.762;2023-06-14T01:48:59;6.75;;;4.45;;
12480;SDS011;6305;48.398;11.762;2023-06-14T01:51:26;6.78;;;4.25;;
12480;SDS011;6305;48.398;11.762;2023-06-14T01:53:53;6.78;;;4.30;;
12480;SDS011;6305;48.398;11.762;2023-06-14T01:56:20;5.55;;;4.05;;
12480;SDS011;6305;48.398;11.762;2023-06-14T01:58:49;5.72;;;4.30;;
12480;SDS011;6305;48.398;11.762;2023-06-14T02:01:17;6.70;;;4.28;;
12480;SDS011;6305;48.398;11.762;2023-06-14T02:03:44;5.82;;;4.18;;
12480;SDS011;6305;48.398;11.762;2023-06-14T02:06:15;5.10;;;3.92;;
12480;SDS011;6305;48.398;11.762;2023-06-14T02:08:42;6.60;;;4.38;;
12480;SDS011;6305;48.398;11.762;2023-06-14T02:11:09;6.90;;;4.40;;
12480;SDS011;6305;48.398;11.762;2023-06-14T02:13:36;5.93;;;4.38;;
12480;SDS011;6305;48.398;11.762;2023-06-14T02:16:04;8.43;;;4.88;;
12480;SDS011;6305;48.398;11.762;2023-06-14T02:18:31;7.65;;;4.88;;
12480;SDS011;6305;48.398;11.762;2023-06-14T02:20:58;6.07;;;4.55;;
12480;SDS011;6305;48.398;11.762;2023-06-14T02:23:25;4.57;;;4.07;;
12480;SDS011;6305;48.398;11.762;2023-06-14T02:25:52;7.32;;;4.43;;
12480;SDS011;6305;48.398;11.762;2023-06-14T02:28:19;6.15;;;4.22;;
12480;SDS011;6305;48.398;11.762;2023-06-14T02:30:46;4.63;;;3.80;;
12480;SDS011;6305;48.398;11.762;2023-06-14T02:33:15;4.50;;;3.90;;
12480;SDS011;6305;48.398;11.762;2023-06-14T02:35:55;7.05;;;4.55;;
12480;SDS011;6305;48.398;11.762;2023-06-14T02:38:22;6.32;;;4.38;;
12480;SDS011;6305;48.398;11.762;2023-06-14T02:40:49;5.30;;;4.10;;
12480;SDS011;6305;48.398;11.762;2023-06-14T02:43:16;5.97;;;3.88;;
12480;SDS011;6305;48.398;11.762;2023-06-14T02:45:43;5.88;;;4.22;;
12480;SDS011;6305;48.398;11.762;2023-06-14T02:48:10;6.65;;;4.38;;
12480;SDS011;6305;48.398;11.762;2023-06-14T02:50:39;6.28;;;4.68;;
12480;SDS011;6305;48.398;11.762;2023-06-14T02:53:07;5.80;;;4.10;;
12480;SDS011;6305;48.398;11.762;2023-06-14T02:55:35;6.38;;;4.45;;
12480;SDS011;6305;48.398;11.762;2023-06-14T02:58:06;5.40;;;4.30;;
12480;SDS011;6305;48.398;11.762;2023-06-14T03:00:33;4.78;;;3.90;;
12480;SDS011;6305;48.398;11.762;2023-06-14T03:03:01;5.78;;;4.00;;
12480;SDS011;6305;48.398;11.762;2023-06-14T03:05:30;5.45;;;4.22;;
12480;SDS011;6305;48.398;11.762;2023-06-14T03:07:59;8.27;;;4.35;;
12480;SDS011;6305;48.398;11.762;2023-06-14T03:10:27;5.28;;;4.40;;
12480;SDS011;6305;48.398;11.762;2023-06-14T03:12:55;6.85;;;4.32;;
12480;SDS011;6305;48.398;11.762;2023-06-14T03:15:22;8.68;;;4.53;;
12480;SDS011;6305;48.398;11.762;2023-06-14T03:17:50;6.05;;;4.43;;
12480;SDS011;6305;48.398;11.762;2023-06-14T03:20:19;6.22;;;4.55;;
12480;SDS011;6305;48.398;11.762;2023-06-14T03:22:47;7.45;;;4.00;;
12480;SDS011;6305;48.398;11.762;2023-06-14T03:25:14;5.88;;;4.05;;
12480;SDS011;6305;48.398;11.762;2023-06-14T03:27:44;6.45;;;4.20;;
12480;SDS011;6305;48.398;11.762;2023-06-14T03:30:11;6.00;;;4.10;;
12480;SDS011;6305;48.398;11.762;2023-06-14T03:32:40;6.03;;;3.83;;
12480;SDS011;6305;48.398;11.762;2023-06-14T03:35:07;5.40;;;3.65;;
12480;SDS011;6305;48.398;11.762;2023-06-14T03:37:35;7.72;;;4.47;;
12480;SDS011;6305;48.398;11.762;2023-06-14T03:40:03;7.55;;;4.13;;
12480;SDS011;6305;48.398;11.762;2023-06-14T03:42:36;5.97;;;4.13;;
12480;SDS011;6305;48.398;11.762;2023-06-14T03:45:06;5.88;;;3.83;;
12480;SDS011;6305;48.398;11.762;2023-06-14T03:47:34;4.95;;;4.00;;
12480;SDS011;6305;48.398;11.762;2023-06-14T03:50:02;6.13;;;4.50;;
12480;SDS011;6305;48.398;11.762;2023-06-14T03:52:29;5.45;;;4.13;;
12480;SDS011;6305;48.398;11.762;2023-06-14T03:54:57;6.22;;;3.95;;
12480;SDS011;6305;48.398;11.762;2023-06-14T03:57:25;7.28;;;3.85;;
12480;SDS011;6305;48.398;11.762;2023-06-14T03:59:54;6.30;;;3.85;;
12480;SDS011;6305;48.398;11.762;2023-06-14T04:02:23;8.25;;;3.90;;
12480;SDS011;6305;48.398;11.762;2023-06-14T04:04:50;4.65;;;3.65;;
12480;SDS011;6305;48.398;11.762;2023-06-14T04:07:19;5.30;;;3.80;;
12480;SDS011;6305;48.398;11.762;2023-06-14T04:09:46;5.80;;;3.50;;
12480;SDS011;6305;48.398;11.762;2023-06-14T04:12:13;6.53;;;3.95;;
12480;SDS011;6305;48.398;11.762;2023-06-14T04:14:40;5.72;;;3.72;;
12480;SDS011;6305;48.398;11.762;2023-06-14T04:17:09;6.43;;;4.13;;
12480;SDS011;6305;48.398;11.762;2023-06-14T04:19:39;5.45;;;3.80;;
12480;SDS011;6305;48.398;11.762;2023-06-14T04:22:06;6.80;;;4.10;;
12480;SDS011;6305;48.398;11.762;2023-06-14T04:24:36;6.00;;;3.63;;
12480;SDS011;6305;48.398;11.762;2023-06-14T04:27:04;5.15;;;3.45;;
12480;SDS011;6305;48.398;11.762;2023-06-14T04:29:32;5.43;;;3.90;;
12480;SDS011;6305;48.398;11.762;2023-06-14T04:32:03;6.30;;;3.50;;
12480;SDS011;6305;48.398;11.762;2023-06-14T04:34:32;4.65;;;3.85;;
12480;SDS011;6305;48.398;11.762;2023-06-14T04:37:02;5.53;;;4.07;;
12480;SDS011;6305;48.398;11.762;2023-06-14T04:39:34;5.25;;;3.72;;
12480;SDS011;6305;48.398;11.762;2023-06-14T04:42:02;5.57;;;3.72;;
12480;SDS011;6305;48.398;11.762;2023-06-14T04:44:30;4.82;;;3.53;;
12480;SDS011;6305;48.398;11.762;2023-06-14T04:47:00;4.70;;;3.78;;
12480;SDS011;6305;48.398;11.762;2023-06-14T04:49:27;4.90;;;3.53;;
12480;SDS011;6305;48.398;11.762;2023-06-14T04:51:57;5.10;;;3.70;;
12480;SDS011;6305;48.398;11.762;2023-06-14T04:54:29;5.65;;;3.88;;
12480;SDS011;6305;48.398;11.762;2023-06-14T04:56:59;6.72;;;3.60;;
12480;SDS011;6305;48.398;11.762;2023-06-14T04:59:27;6.20;;;3.45;;
12480;SDS011;6305;48.398;11.762;2023-06-14T05:01:59;5.57;;;4.07;;
12480;SDS011;6305;48.398;11.762;2023-06-14T05:04:26;6.13;;;3.90;;
12480;SDS011;6305;48.398;11.762;2023-06-14T05:06:53;5.78;;;3.90;;
12480;SDS011;6305;48.398;11.762;2023-06-14T05:09:21;5.47;;;3.80;;
12480;SDS011;6305;48.398;11.762;2023-06-14T05:11:50;5.38;;;3.42;;
12480;SDS011;6305;48.398;11.762;2023-06-14T05:14:17;4.28;;;3.85;;
12480;SDS011;6305;48.398;11.762;2023-06-14T05:16:45;6.18;;;3.53;;
12480;SDS011;6305;48.398;11.762;2023-06-14T05:19:14;5.35;;;3.58;;
12480;SDS011;6305;48.398;11.762;2023-06-14T05:21:43;5.40;;;3.53;;
12480;SDS011;6305;48.398;11.762;2023-06-14T05:24:10;4.65;;;3.40;;
12480;SDS011;6305;48.398;11.762;2023-06-14T05:26:37;5.88;;;3.70;;
12480;SDS011;6305;48.398;11.762;2023-06-14T05:29:06;8.10;;;4.13;;
12480;SDS011;6305;48.398;11.762;2023-06-14T05:31:32;4.55;;;3.42;;
12480;SDS011;6305;48.398;11.762;2023-06-14T05:34:00;6.13;;;4.07;;
12480;SDS011;6305;48.398;11.762;2023-06-14T05:36:27;5.75;;;3.70;;
12480;SDS011;6305;48.398;11.762;2023-06-14T05:38:54;4.55;;;3.90;;
12480;SDS011;6305;48.398;11.762;2023-06-14T05:41:25;5.20;;;3.90;;
12480;SDS011;6305;48.398;11.762;2023-06-14T05:43:52;5.00;;;3.72;;
12480;SDS011;6305;48.398;11.762;2023-06-14T05:46:21;6.43;;;4.00;;
12480;SDS011;6305;48.398;11.762;2023-06-14T05:48:50;4.05;;;3.63;;
12480;SDS011;6305;48.398;11.762;2023-06-14T05:51:18;4.30;;;3.33;;
12480;SDS011;6305;48.398;11.762;2023-06-14T05:53:45;3.92;;;3.30;;
12480;SDS011;6305;48.398;11.762;2023-06-14T05:56:12;3.33;;;3.00;;
12480;SDS011;6305;48.398;11.762;2023-06-14T05:58:40;6.00;;;3.30;;
12480;SDS011;6305;48.398;11.762;2023-06-14T06:01:07;4.85;;;3.33;;
12480;SDS011;6305;48.398;11.762;2023-06-14T06:03:35;4.43;;;3.17;;
12480;SDS011;6305;48.398;11.762;2023-06-14T06:06:02;4.53;;;3.08;;
12480;SDS011;6305;48.398;11.762;2023-06-14T06:08:30;4.80;;;3.63;;
12480;SDS011;6305;48.398;11.762;2023-06-14T06:10:57;3.83;;;2.90;;
12480;SDS011;6305;48.398;11.762;2023-06-14T06:13:25;8.30;;;3.35;;
12480;SDS011;6305;48.398;11.762;2023-06-14T06:15:53;4.15;;;2.95;;
12480;SDS011;6305;48.398;11.762;2023-06-14T06:18:20;7.90;;;3.10;;
12480;SDS011;6305;48.398;11.762;2023-06-14T06:20:48;3.75;;;3.13;;
12480;SDS011;6305;48.398;11.762;2023-06-14T06:23:15;3.67;;;3.20;;
12480;SDS011;6305;48.398;11.762;2023-06-14T06:25:42;4.47;;;3.28;;
12480;SDS011;6305;48.398;11.762;2023-06-14T06:28:09;4.55;;;3.40;;
12480;SDS011;6305;48.398;11.762;2023-06-14T06:30:36;4.03;;;3.20;;
12480;SDS011;6305;48.398;11.762;2023-06-14T06:33:04;3.72;;;3.10;;
12480;SDS011;6305;48.398;11.762;2023-06-14T06:35:31;3.97;;;3.00;;
12480;SDS011;6305;48.398;11.762;2023-06-14T06:37:59;5.90;;;3.20;;
12480;SDS011;6305;48.398;11.762;2023-06-14T06:40:27;4.28;;;2.90;;
12480;SDS011;6305;48.398;11.762;2023-06-14T06:42:54;4.65;;;3.00;;
12480;SDS011;6305;48.398;11.762;2023-06-14T06:45:21;4.70;;;3.70;;
12480;SDS011;6305;48.398;11.762;2023-06-14T06:47:50;3.90;;;3.38;;
12480;SDS011;6305;48.398;11.762;2023-06-14T06:50:17;4.25;;;3.15;;
12480;SDS011;6305;48.398;11.762;2023-06-14T06:52:45;3.70;;;3.00;;
12480;SDS011;6305;48.398;11.762;2023-06-14T06:55:13;4.43;;;2.78;;
12480;SDS011;6305;48.398;11.762;2023-06-14T06:57:40;4.43;;;3.10;;
12480;SDS011;6305;48.398;11.762;2023-06-14T07:00:07;3.80;;;2.85;;
12480;SDS011;6305;48.398;11.762;2023-06-14T07:02:36;4.82;;;2.92;;
12480;SDS011;6305;48.398;11.762;2023-06-14T07:05:03;3.92;;;2.80;;
12480;SDS011;6305;48.398;11.762;2023-06-14T07:07:31;3.08;;;2.78;;
12480;SDS011;6305;48.398;11.762;2023-06-14T07:09:58;3.85;;;3.28;;
12480;SDS011;6305;48.398;11.762;2023-06-14T07:12:26;4.60;;;2.60;;
12480;SDS011;6305;48.398;11.762;2023-06-14T07:14:54;4.07;;;2.83;;
12480;SDS011;6305;48.398;11.762;2023-06-14T07:17:21;4.13;;;3.10;;
12480;SDS011;6305;48.398;11.762;2023-06-14T07:19:48;4.60;;;3.03;;
12480;SDS011;6305;48.398;11.762;2023-06-14T07:22:17;2.85;;;2.65;;
12480;SDS011;6305;48.398;11.762;2023-06-14T07:24:44;2.88;;;2.67;;
12480;SDS011;6305;48.398;11.762;2023-06-14T07:27:11;3.38;;;3.08;;
12480;SDS011;6305;48.398;11.762;2023-06-14T07:29:40;3.42;;;2.80;;
12480;SDS011;6305;48.398;11.762;2023-06-14T07:32:07;3.70;;;3.08;;
12480;SDS011;6305;48.398;11.762;2023-06-14T07:34:34;3.42;;;2.70;;
12480;SDS011;6305;48.398;11.762;2023-06-14T07:37:00;3.88;;;2.85;;
12480;SDS011;6305;48.398;11.762;2023-06-14T07:39:27;3.20;;;2.78;;
12480;SDS011;6305;48.398;11.762;2023-06-14T07:41:55;3.47;;;2.60;;
12480;SDS011;6305;48.398;11.762;2023-06-14T07:44:21;4.78;;;3.00;;
12480;SDS011;6305;48.398;11.762;2023-06-14T07:46:50;4.40;;;2.63;;
12480;SDS011;6305;48.398;11.762;2023-06-14T07:49:17;4.80;;;2.70;;
12480;SDS011;6305;48.398;11.762;2023-06-14T07:51:44;2.70;;;2.50;;
12480;SDS011;6305;48.398;11.762;2023-06-14T07:54:12;2.70;;;2.40;;
12480;SDS011;6305;48.398;11.762;2023-06-14T07:56:39;3.28;;;2.97;;
12480;SDS011;6305;48.398;11.762;2023-06-14T07:59:06;3.47;;;2.70;;
12480;SDS011;6305;48.398;11.762;2023-06-14T08:01:33;4.45;;;3.03;;
12480;SDS011;6305;48.398;11.762;2023-06-14T08:04:03;3.30;;;3.00;;
12480;SDS011;6305;48.398;11.762;2023-06-14T08:06:30;4.05;;;3.10;;
12480;SDS011;6305;48.398;11.762;2023-06-14T08:08:58;5.13;;;3.00;;
12480;SDS011;6305;48.398;11.762;2023-06-14T08:11:26;3.25;;;2.88;;
12480;SDS011;6305;48.398;11.762;2023-06-14T08:13:53;3.75;;;3.13;;
12480;SDS011;6305;48.398;11.762;2023-06-14T08:16:19;5.05;;;3.10;;
12480;SDS011;6305;48.398;11.762;2023-06-14T08:18:46;3.47;;;3.00;;
12480;SDS011;6305;48.398;11.762;2023-06-14T08:21:15;6.32;;;2.72;;
12480;SDS011;6305;48.398;11.762;2023-06-14T08:23:42;4.82;;;2.92;;
12480;SDS011;6305;48.398;11.762;2023-06-14T08:26:09;4.13;;;2.90;;
12480;SDS011;6305;48.398;11.762;2023-06-14T08:28:36;4.63;;;2.70;;
12480;SDS011;6305;48.398;11.762;2023-06-14T08:31:03;3.78;;;2.75;;
12480;SDS011;6305;48.398;11.762;2023-06-14T08:33:30;3.78;;;2.83;;
12480;SDS011;6305;48.398;11.762;2023-06-14T08:35:59;5.50;;;3.08;;
12480;SDS011;6305;48.398;11.762;2023-06-14T08:38:27;6.25;;;3.05;;
12480;SDS011;6305;48.398;11.762;2023-06-14T08:40:56;5.78;;;2.95;;
12480;SDS011;6305;48.398;11.762;2023-06-14T08:43:24;3.08;;;2.58;;
12480;SDS011;6305;48.398;11.762;2023-06-14T08:45:52;5.40;;;2.80;;
12480;SDS011;6305;48.398;11.762;2023-06-14T08:48:24;4.13;;;2.97;;
12480;SDS011;6305;48.398;11.762;2023-06-14T08:50:53;4.32;;;2.90;;
12480;SDS011;6305;48.398;11.762;2023-06-14T08:53:28;4.55;;;2.80;;
12480;SDS011;6305;48.398;11.762;2023-06-14T08:55:59;3.33;;;2.38;;
12480;SDS011;6305;48.398;11.762;2023-06-14T08:58:27;4.43;;;2.70;;
12480;SDS011;6305;48.398;11.762;2023-06-14T09:00:55;3.13;;;2.35;;
12480;SDS011;6305;48.398;11.762;2023-06-14T09:03:22;4.43;;;2.78;;
12480;SDS011;6305;48.398;11.762;2023-06-14T09:05:55;3.90;;;3.00;;
12480;SDS011;6305;48.398;11.762;2023-06-14T09:08:24;2.85;;;2.60;;
12480;SDS011;6305;48.398;11.762;2023-06-14T09:10:53;3.40;;;2.60;;
12480;SDS011;6305;48.398;11.762;2023-06-14T09:13:21;3.03;;;2.75;;
12480;SDS011;6305;48.398;11.762;2023-06-14T09:15:48;3.72;;;2.80;;
12480;SDS011;6305;48.398;11.762;2023-06-14T09:18:17;3.35;;;2.63;;
12480;SDS011;6305;48.398;11.762;2023-06-14T09:20:45;3.10;;;2.45;;
12480;SDS011;6305;48.398;11.762;2023-06-14T09:23:14;4.00;;;2.58;;
12480;SDS011;6305;48.398;11.762;2023-06-14T09:25:47;3.05;;;2.38;;
12480;SDS011;6305;48.398;11.762;2023-06-14T09:28:16;5.60;;;2.78;;
12480;SDS011;6305;48.398;11.762;2023-06-14T09:30:45;3.92;;;2.80;;
12480;SDS011;6305;48.398;11.762;2023-06-14T09:33:16;3.55;;;2.70;;
12480;SDS011;6305;48.398;11.762;2023-06-14T09:35:45;5.57;;;2.85;;
12480;SDS011;6305;48.398;11.762;2023-06-14T09:38:12;5.22;;;2.92;;
12480;SDS011;6305;48.398;11.762;2023-06-14T09:40:39;2.95;;;2.53;;
12480;SDS011;6305;48.398;11.762;2023-06-14T09:43:07;3.35;;;2.83;;
12480;SDS011;6305;48.398;11.762;2023-06-14T09:45:36;3.05;;;2.63;;
12480;SDS011;6305;48.398;11.762;2023-06-14T09:48:05;3.97;;;2.97;;
12480;SDS011;6305;48.398;11.762;2023-06-14T09:50:33;4.82;;;2.63;;
12480;SDS011;6305;48.398;11.762;2023-06-14T09:53:01;3.45;;;2.90;;
12480;SDS011;6305;48.398;11.762;2023-06-14T09:55:31;3.13;;;2.75;;
12480;SDS011;6305;48.398;11.762;2023-06-14T09:58:03;4.43;;;2.75;;
12480;SDS011;6305;48.398;11.762;2023-06-14T10:00:32;3.22;;;2.92;;
12480;SDS011;6305;48.398;11.762;2023-06-14T10:03:03;3.00;;;2.80;;
12480;SDS011;6305;48.398;11.762;2023-06-14T10:05:35;5.15;;;2.95;;
12480;SDS011;6305;48.398;11.762;2023-06-14T10:08:04;3.42;;;3.13;;
12480;SDS011;6305;48.398;11.762;2023-06-14T10:10:34;4.78;;;3.15;;
12480;SDS011;6305;48.398;11.762;2023-06-14T10:13:04;4.75;;;3.03;;
12480;SDS011;6305;48.398;11.762;2023-06-14T10:15:34;3.42;;;2.90;;
12480;SDS011;6305;48.398;11.762;2023-06-14T10:18:06;4.63;;;2.90;;
12480;SDS011;6305;48.398;11.762;2023-06-14T10:20:41;5.13;;;2.92;;
12480;SDS011;6305;48.398;11.762;2023-06-14T10:23:16;4.53;;;2.85;;
12480;SDS011;6305;48.398;11.762;2023-06-14T10:25:49;4.72;;;3.15;;
12480;SDS011;6305;48.398;11.762;2023-06-14T10:28:17;3.00;;;2.70;;
12480;SDS011;6305;48.398;11.762;2023-06-14T10:31:03;3.05;;;2.80;;
12480;SDS011;6305;48.398;11.762;2023-06-14T10:33:33;3.42;;;2.80;;
12480;SDS011;6305;48.398;11.762;2023-06-14T10:36:08;3.60;;;2.70;;
12480;SDS011;6305;48.398;11.762;2023-06-14T10:38:36;3.45;;;3.15;;
12480;SDS011;6305;48.398;11.762;2023-06-14T10:41:04;3.33;;;2.95;;
12480;SDS011;6305;48.398;11.762;2023-06-14T10:43:32;3.22;;;2.90;;
12480;SDS011;6305;48.398;11.762;2023-06-14T10:46:13;3.25;;;2.83;;
12480;SDS011;6305;48.398;11.762;2023-06-14T10:48:42;3.83;;;2.90;;
12480;SDS011;6305;48.398;11.762;2023-06-14T10:53:56;3.28;;;2.78;;
12480;SDS011;6305;48.398;11.762;2023-06-14T10:56:26;4.70;;;2.88;;
12480;SDS011;6305;48.398;11.762;2023-06-14T10:58:54;4.13;;;2.92;;
12480;SDS011;6305;48.398;11.762;2023-06-14T11:01:28;3.53;;;2.70;;
12480;SDS011;6305;48.398;11.762;2023-06-14T11:04:07;5.35;;;2.72;;
12480;SDS011;6305;48.398;11.762;2023-06-14T11:06:42;4.63;;;2.83;;
12480;SDS011;6305;48.398;11.762;2023-06-14T11:12:19;4.72;;;3.00;;
12480;SDS011;6305;48.398;11.762;2023-06-14T11:14:47;3.15;;;2.85;;
12480;SDS011;6305;48.398;11.762;2023-06-14T11:17:15;5.70;;;2.80;;
12480;SDS011;6305;48.398;11.762;2023-06-14T11:19:43;3.65;;;3.30;;
12480;SDS011;6305;48.398;11.762;2023-06-14T11:22:10;4.05;;;2.92;;
12480;SDS011;6305;48.398;11.762;2023-06-14T11:24:40;3.40;;;3.05;;
12480;SDS011;6305;48.398;11.762;2023-06-14T11:27:07;2.88;;;2.67;;
12480;SDS011;6305;48.398;11.762;2023-06-14T11:29:34;3.20;;;2.80;;
12480;SDS011;6305;48.398;11.762;2023-06-14T11:32:02;3.92;;;2.80;;
12480;SDS011;6305;48.398;11.762;2023-06-14T11:34:32;4.60;;;3.40;;
12480;SDS011;6305;48.398;11.762;2023-06-14T11:37:01;5.05;;;3.00;;
12480;SDS011;6305;48.398;11.762;2023-06-14T11:39:28;3.38;;;3.00;;
12480;SDS011;6305;48.398;11.762;2023-06-14T11:41:55;3.88;;;2.88;;
12480;SDS011;6305;48.398;11.762;2023-06-14T11:44:26;3.25;;;2.95;;
12480;SDS011;6305;48.398;11.762;2023-06-14T11:46:54;3.88;;;2.95;;
12480;SDS011;6305;48.398;11.762;2023-06-14T11:49:23;3.88;;;2.72;;
12480;SDS011;6305;48.398;11.762;2023-06-14T11:51:51;3.00;;;2.70;;
12480;SDS011;6305;48.398;11.762;2023-06-14T11:54:21;3.47;;;2.70;;
12480;SDS011;6305;48.398;11.762;2023-06-14T11:56:48;3.00;;;2.67;;
12480;SDS011;6305;48.398;11.762;2023-06-14T11:59:15;4.95;;;2.83;;
12480;SDS011;6305;48.398;11.762;2023-06-14T12:01:42;3.13;;;2.72;;
12480;SDS011;6305;48.398;11.762;2023-06-14T12:04:10;3.13;;;2.83;;
12480;SDS011;6305;48.398;11.762;2023-06-14T12:06:37;3.35;;;3.05;;
12480;SDS011;6305;48.398;11.762;2023-06-14T12:09:04;4.45;;;2.60;;
12480;SDS011;6305;48.398;11.762;2023-06-14T12:11:39;3.75;;;2.63;;
12480;SDS011;6305;48.398;11.762;2023-06-14T12:14:06;2.90;;;2.70;;
12480;SDS011;6305;48.398;11.762;2023-06-14T12:16:36;2.97;;;2.67;;
12480;SDS011;6305;48.398;11.762;2023-06-14T12:19:08;5.00;;;3.13;;
12480;SDS011;6305;48.398;11.762;2023-06-14T12:21:38;2.78;;;2.53;;
12480;SDS011;6305;48.398;11.762;2023-06-14T12:24:07;2.90;;;2.60;;
12480;SDS011;6305;48.398;11.762;2023-06-14T12:26:39;3.13;;;2.63;;
12480;SDS011;6305;48.398;11.762;2023-06-14T12:29:07;3.08;;;2.60;;
12480;SDS011;6305;48.398;11.762;2023-06-14T12:31:34;2.60;;;2.40;;
12480;SDS011;6305;48.398;11.762;2023-06-14T12:34:01;3.15;;;2.88;;
12480;SDS011;6305;48.398;11.762;2023-06-14T12:36:28;3.10;;;2.50;;
12480;SDS011;6305;48.398;11.762;2023-06-14T12:38:56;2.80;;;2.60;;
12480;SDS011;6305;48.398;11.762;2023-06-14T12:41:24;4.22;;;2.65;;
12480;SDS011;6305;48.398;11.762;2023-06-14T12:43:53;4.15;;;3.03;;
12480;SDS011;6305;48.398;11.762;2023-06-14T12:46:23;5.43;;;2.78;;
12480;SDS011;6305;48.398;11.762;2023-06-14T12:48:50;4.57;;;2.90;;
12480;SDS011;6305;48.398;11.762;2023-06-14T12:51:18;3.53;;;2.65;;
12480;SDS011;6305;48.398;11.762;2023-06-14T12:53:45;3.38;;;2.92;;
12480;SDS011;6305;48.398;11.762;2023-06-14T12:56:11;3.13;;;2.80;;
12480;SDS011;6305;48.398;11.762;2023-06-14T12:58:39;4.30;;;3.10;;
12480;SDS011;6305;48.398;11.762;2023-06-14T13:01:07;3.15;;;2.85;;
12480;SDS011;6305;48.398;11.762;2023-06-14T13:03:34;3.10;;;2.80;;
12480;SDS011;6305;48.398;11.762;2023-06-14T13:06:01;4.47;;;2.67;;
12480;SDS011;6305;48.398;11.762;2023-06-14T13:08:29;3.10;;;2.80;;
12480;SDS011;6305;48.398;11.762;2023-06-14T13:10:56;3.95;;;2.83;;
12480;SDS011;6305;48.398;11.762;2023-06-14T13:13:23;3.75;;;3.03;;
12480;SDS011;6305;48.398;11.762;2023-06-14T13:15:51;3.25;;;2.95;;
12480;SDS011;6305;48.398;11.762;2023-06-14T13:18:19;5.43;;;2.75;;
12480;SDS011;6305;48.398;11.762;2023-06-14T13:20:46;2.90;;;2.70;;
12480;SDS011;6305;48.398;11.762;2023-06-14T13:23:15;3.50;;;3.05;;
12480;SDS011;6305;48.398;11.762;2023-06-14T13:25:42;3.53;;;2.85;;
12480;SDS011;6305;48.398;11.762;2023-06-14T13:28:09;4.65;;;2.88;;
12480;SDS011;6305;48.398;11.762;2023-06-14T13:30:36;2.72;;;2.45;;
12480;SDS011;6305;48.398;11.762;2023-06-14T13:33:03;3.35;;;2.80;;
12480;SDS011;6305;48.398;11.762;2023-06-14T13:35:32;4.15;;;3.03;;
12480;SDS011;6305;48.398;11.762;2023-06-14T13:37:59;3.15;;;2.95;;
12480;SDS011;6305;48.398;11.762;2023-06-14T13:40:26;3.13;;;2.83;;
12480;SDS011;6305;48.398;11.762;2023-06-14T13:42:53;4.15;;;3.20;;
12480;SDS011;6305;48.398;11.762;2023-06-14T13:45:23;4.82;;;2.97;;
12480;SDS011;6305;48.398;11.762;2023-06-14T13:47:49;5.00;;;2.70;;
12480;SDS011;6305;48.398;11.762;2023-06-14T13:50:17;4.72;;;3.05;;
12480;SDS011;6305;48.398;11.762;2023-06-14T13:52:45;3.88;;;2.95;;
12480;SDS011;6305;48.398;11.762;2023-06-14T13:55:12;3.47;;;2.90;;
12480;SDS011;6305;48.398;11.762;2023-06-14T13:57:39;4.68;;;2.70;;
12480;SDS011;6305;48.398;11.762;2023-06-14T14:00:07;3.20;;;2.90;;
12480;SDS011;6305;48.398;11.762;2023-06-14T14:02:41;3.72;;;2.85;;
12480;SDS011;6305;48.398;11.762;2023-06-14T14:05:08;3.10;;;2.80;;
12480;SDS011;6305;48.398;11.762;2023-06-14T14:07:35;3.40;;;3.10;;
12480;SDS011;6305;48.398;11.762;2023-06-14T14:10:05;4.25;;;3.03;;
12480;SDS011;6305;48.398;11.762;2023-06-14T14:12:33;4.72;;;3.10;;
12480;SDS011;6305;48.398;11.762;2023-06-14T14:15:00;3.28;;;2.80;;
12480;SDS011;6305;48.398;11.762;2023-06-14T14:17:29;3.47;;;2.80;;
12480;SDS011;6305;48.398;11.762;2023-06-14T14:19:56;6.10;;;2.97;;
12480;SDS011;6305;48.398;11.762;2023-06-14T14:22:23;3.35;;;3.05;;
12480;SDS011;6305;48.398;11.762;2023-06-14T14:24:50;5.07;;;2.92;;
12480;SDS011;6305;48.398;11.762;2023-06-14T14:27:19;3.65;;;2.95;;
12480;SDS011;6305;48.398;11.762;2023-06-14T14:29:46;4.05;;;3.00;;
12480;SDS011;6305;48.398;11.762;2023-06-14T14:32:13;3.25;;;2.88;;
12480;SDS011;6305;48.398;11.762;2023-06-14T14:34:40;3.67;;;3.33;;
12480;SDS011;6305;48.398;11.762;2023-06-14T14:37:08;3.60;;;3.30;;
12480;SDS011;6305;48.398;11.762;2023-06-14T14:39:36;3.85;;;3.45;;
12480;SDS011;6305;48.398;11.762;2023-06-14T14:42:03;4.63;;;3.08;;
12480;SDS011;6305;48.398;11.762;2023-06-14T14:44:32;4.10;;;3.25;;
12480;SDS011;6305;48.398;11.762;2023-06-14T14:46:59;3.22;;;3.00;;
12480;SDS011;6305;48.398;11.762;2023-06-14T14:49:26;4.05;;;3.22;;
12480;SDS011;6305;48.398;11.762;2023-06-14T14:51:53;3.58;;;2.88;;
12480;SDS011;6305;48.398;11.762;2023-06-14T14:54:21;8.93;;;3.78;;
12480;SDS011;6305;48.398;11.762;2023-06-14T14:56:48;3.88;;;3.10;;
12480;SDS011;6305;48.398;11.762;2023-06-14T14:59:15;3.03;;;2.75;;
12480;SDS011;6305;48.398;11.762;2023-06-14T15:01:45;3.55;;;3.05;;